sensor_id;sensor_type;location;lat;lon;timestamp;P1;durP1;ratioP1;P2;durP2;ratioP2
11771;SDS011;12556;55.748;13.194;2023-06-10T00:01:37;2.40;;;0.83;;
11771;SDS011;12556;55.748;13.194;2023-06-10T00:04:04;1.77;;;0.90;;
11771;SDS011;12556;55.748;13.194;2023-06-10T00:06:31;2.97;;;0.90;;
11771;SDS011;12556;55.748;13.194;2023-06-10T00:09:02;0.97;;;0.70;;
11771;SDS011;12556;55.748;13.194;2023-06-10T00:11:30;2.03;;;1.07;;
11771;SDS011;12556;55.748;13.194;2023-06-10T00:13:57;1.07;;;0.80;;
11771;SDS011;12556;55.748;13.194;2023-06-10T00:16:25;1.07;;;0.90;;
11771;SDS011;12556;55.748;13.194;2023-06-10T00:18:52;1.90;;;0.93;;
11771;SDS011;12556;55.748;13.194;2023-06-10T00:21:20;1.27;;;1.00;;
11771;SDS011;12556;55.748;13.194;2023-06-10T00:23:49;1.00;;;0.70;;
11771;SDS011;12556;55.748;13.194;2023-06-10T00:26:18;0.80;;;0.80;;
11771;SDS011;12556;55.748;13.194;2023-06-10T00:28:45;0.73;;;0.73;;
11771;SDS011;12556;55.748;13.194;2023-06-10T00:31:12;2.30;;;1.00;;
11771;SDS011;12556;55.748;13.194;2023-06-10T00:33:39;1.00;;;0.83;;
11771;SDS011;12556;55.748;13.194;2023-06-10T00:36:06;1.17;;;0.87;;
11771;SDS011;12556;55.748;13.194;2023-06-10T00:38:33;0.80;;;0.60;;
11771;SDS011;12556;55.748;13.194;2023-06-10T00:41:00;0.77;;;0.70;;
11771;SDS011;12556;55.748;13.194;2023-06-10T00:43:28;2.40;;;0.90;;
11771;SDS011;12556;55.748;13.194;2023-06-10T00:45:55;6.07;;;1.03;;
11771;SDS011;12556;55.748;13.194;2023-06-10T00:48:22;0.90;;;0.90;;
11771;SDS011;12556;55.748;13.194;2023-06-10T00:50:49;3.20;;;1.00;;
11771;SDS011;12556;55.748;13.194;2023-06-10T00:53:16;1.20;;;0.80;;
11771;SDS011;12556;55.748;13.194;2023-06-10T00:55:44;1.60;;;0.83;;
11771;SDS011;12556;55.748;13.194;2023-06-10T00:58:11;1.17;;;0.80;;
11771;SDS011;12556;55.748;13.194;2023-06-10T01:00:40;1.07;;;0.70;;
11771;SDS011;12556;55.748;13.194;2023-06-10T01:03:07;3.13;;;0.90;;
11771;SDS011;12556;55.748;13.194;2023-06-10T01:05:34;1.07;;;0.70;;
11771;SDS011;12556;55.748;13.194;2023-06-10T01:08:03;1.07;;;0.93;;
11771;SDS011;12556;55.748;13.194;2023-06-10T01:10:36;0.87;;;0.80;;
11771;SDS011;12556;55.748;13.194;2023-06-10T01:13:06;1.87;;;0.90;;
11771;SDS011;12556;55.748;13.194;2023-06-10T01:15:36;1.30;;;0.90;;
11771;SDS011;12556;55.748;13.194;2023-06-10T01:18:06;1.60;;;0.90;;
11771;SDS011;12556;55.748;13.194;2023-06-10T01:20:35;0.97;;;0.83;;
11771;SDS011;12556;55.748;13.194;2023-06-10T01:23:07;0.80;;;0.80;;
11771;SDS011;12556;55.748;13.194;2023-06-10T01:25:36;0.90;;;0.90;;
11771;SDS011;12556;55.748;13.194;2023-06-10T01:28:05;2.63;;;0.93;;
11771;SDS011;12556;55.748;13.194;2023-06-10T01:30:37;1.27;;;0.97;;
11771;SDS011;12556;55.748;13.194;2023-06-10T01:33:10;8.17;;;1.67;;
11771;SDS011;12556;55.748;13.194;2023-06-10T01:35:40;1.77;;;0.90;;
11771;SDS011;12556;55.748;13.194;2023-06-10T01:38:10;0.97;;;0.87;;
11771;SDS011;12556;55.748;13.194;2023-06-10T01:40:40;1.17;;;0.97;;
11771;SDS011;12556;55.748;13.194;2023-06-10T01:43:08;3.23;;;1.00;;
11771;SDS011;12556;55.748;13.194;2023-06-10T01:45:35;2.17;;;1.07;;
11771;SDS011;12556;55.748;13.194;2023-06-10T01:48:02;1.30;;;0.90;;
11771;SDS011;12556;55.748;13.194;2023-06-10T01:50:29;1.10;;;0.80;;
11771;SDS011;12556;55.748;13.194;2023-06-10T01:52:56;2.37;;;1.00;;
11771;SDS011;12556;55.748;13.194;2023-06-10T01:55:25;2.23;;;0.93;;
11771;SDS011;12556;55.748;13.194;2023-06-10T01:57:52;1.23;;;0.80;;
11771;SDS011;12556;55.748;13.194;2023-06-10T02:00:19;1.10;;;0.80;;
11771;SDS011;12556;55.748;13.194;2023-06-10T02:02:46;2.93;;;0.80;;
11771;SDS011;12556;55.748;13.194;2023-06-10T02:05:13;2.07;;;1.03;;
11771;SDS011;12556;55.748;13.194;2023-06-10T02:07:40;1.20;;;0.80;;
11771;SDS011;12556;55.748;13.194;2023-06-10T02:10:07;1.00;;;0.80;;
11771;SDS011;12556;55.748;13.194;2023-06-10T02:12:36;0.87;;;0.87;;
11771;SDS011;12556;55.748;13.194;2023-06-10T02:15:03;1.00;;;0.90;;
11771;SDS011;12556;55.748;13.194;2023-06-10T02:17:30;0.90;;;0.70;;
11771;SDS011;12556;55.748;13.194;2023-06-10T02:19:57;2.80;;;1.00;;
11771;SDS011;12556;55.748;13.194;2023-06-10T02:22:25;2.10;;;1.00;;
11771;SDS011;12556;55.748;13.194;2023-06-10T02:24:52;0.80;;;0.80;;
11771;SDS011;12556;55.748;13.194;2023-06-10T02:27:18;1.20;;;0.80;;
11771;SDS011;12556;55.748;13.194;2023-06-10T02:29:47;3.23;;;0.90;;
11771;SDS011;12556;55.748;13.194;2023-06-10T02:32:14;2.63;;;0.97;;
11771;SDS011;12556;55.748;13.194;2023-06-10T02:34:41;1.37;;;0.73;;
11771;SDS011;12556;55.748;13.194;2023-06-10T02:37:08;1.57;;;0.70;;
11771;SDS011;12556;55.748;13.194;2023-06-10T02:39:35;4.00;;;1.10;;
11771;SDS011;12556;55.748;13.194;2023-06-10T02:42:03;1.60;;;0.90;;
11771;SDS011;12556;55.748;13.194;2023-06-10T02:44:30;4.00;;;1.20;;
11771;SDS011;12556;55.748;13.194;2023-06-10T02:46:58;1.00;;;0.90;;
11771;SDS011;12556;55.748;13.194;2023-06-10T02:49:25;3.10;;;0.90;;
11771;SDS011;12556;55.748;13.194;2023-06-10T02:51:53;2.17;;;1.10;;
11771;SDS011;12556;55.748;13.194;2023-06-10T02:54:20;0.87;;;0.87;;
11771;SDS011;12556;55.748;13.194;2023-06-10T02:56:47;1.07;;;0.80;;
11771;SDS011;12556;55.748;13.194;2023-06-10T02:59:14;1.67;;;0.80;;
11771;SDS011;12556;55.748;13.194;2023-06-10T03:01:42;1.00;;;1.00;;
11771;SDS011;12556;55.748;13.194;2023-06-10T03:04:10;1.57;;;0.80;;
11771;SDS011;12556;55.748;13.194;2023-06-10T03:06:38;3.47;;;1.00;;
11771;SDS011;12556;55.748;13.194;2023-06-10T03:09:07;1.67;;;1.10;;
11771;SDS011;12556;55.748;13.194;2023-06-10T03:11:34;0.93;;;0.90;;
11771;SDS011;12556;55.748;13.194;2023-06-10T03:14:01;0.73;;;0.73;;
11771;SDS011;12556;55.748;13.194;2023-06-10T03:16:28;3.20;;;0.93;;
11771;SDS011;12556;55.748;13.194;2023-06-10T03:18:56;0.97;;;0.90;;
11771;SDS011;12556;55.748;13.194;2023-06-10T03:21:24;1.90;;;0.97;;
11771;SDS011;12556;55.748;13.194;2023-06-10T03:23:52;1.03;;;0.80;;
11771;SDS011;12556;55.748;13.194;2023-06-10T03:26:18;2.33;;;0.80;;
11771;SDS011;12556;55.748;13.194;2023-06-10T03:28:46;2.80;;;0.90;;
11771;SDS011;12556;55.748;13.194;2023-06-10T03:31:13;1.10;;;0.80;;
11771;SDS011;12556;55.748;13.194;2023-06-10T03:33:41;1.63;;;0.97;;
11771;SDS011;12556;55.748;13.194;2023-06-10T03:36:08;4.70;;;0.90;;
11771;SDS011;12556;55.748;13.194;2023-06-10T03:38:37;1.43;;;0.97;;
11771;SDS011;12556;55.748;13.194;2023-06-10T03:41:04;1.20;;;0.90;;
11771;SDS011;12556;55.748;13.194;2023-06-10T03:43:31;3.23;;;1.10;;
11771;SDS011;12556;55.748;13.194;2023-06-10T03:45:57;1.20;;;1.10;;
11771;SDS011;12556;55.748;13.194;2023-06-10T03:48:24;2.73;;;1.00;;
11771;SDS011;12556;55.748;13.194;2023-06-10T03:50:51;2.17;;;1.10;;
11771;SDS011;12556;55.748;13.194;2023-06-10T03:53:18;1.23;;;0.80;;
11771;SDS011;12556;55.748;13.194;2023-06-10T03:55:46;1.67;;;0.90;;
11771;SDS011;12556;55.748;13.194;2023-06-10T03:58:13;2.73;;;1.00;;
11771;SDS011;12556;55.748;13.194;2023-06-10T04:00:40;4.30;;;1.00;;
11771;SDS011;12556;55.748;13.194;2023-06-10T04:03:07;0.70;;;0.70;;
11771;SDS011;12556;55.748;13.194;2023-06-10T04:05:39;1.27;;;0.93;;
11771;SDS011;12556;55.748;13.194;2023-06-10T04:08:07;1.87;;;1.10;;
11771;SDS011;12556;55.748;13.194;2023-06-10T04:10:34;3.23;;;1.13;;
11771;SDS011;12556;55.748;13.194;2023-06-10T04:13:02;1.67;;;1.00;;
11771;SDS011;12556;55.748;13.194;2023-06-10T04:15:30;2.33;;;0.80;;
11771;SDS011;12556;55.748;13.194;2023-06-10T04:17:58;3.47;;;1.00;;
11771;SDS011;12556;55.748;13.194;2023-06-10T04:20:26;2.23;;;1.03;;
11771;SDS011;12556;55.748;13.194;2023-06-10T04:22:53;7.00;;;1.07;;
11771;SDS011;12556;55.748;13.194;2023-06-10T04:25:20;2.90;;;1.13;;
11771;SDS011;12556;55.748;13.194;2023-06-10T04:27:47;1.33;;;1.20;;
11771;SDS011;12556;55.748;13.194;2023-06-10T04:30:16;1.53;;;0.70;;
11771;SDS011;12556;55.748;13.194;2023-06-10T04:32:43;3.47;;;1.40;;
11771;SDS011;12556;55.748;13.194;2023-06-10T04:35:11;1.77;;;1.20;;
11771;SDS011;12556;55.748;13.194;2023-06-10T04:37:39;1.87;;;1.20;;
11771;SDS011;12556;55.748;13.194;2023-06-10T04:40:06;1.77;;;1.00;;
11771;SDS011;12556;55.748;13.194;2023-06-10T04:42:34;3.57;;;0.90;;
11771;SDS011;12556;55.748;13.194;2023-06-10T04:45:01;1.23;;;0.80;;
11771;SDS011;12556;55.748;13.194;2023-06-10T04:47:30;1.00;;;0.93;;
11771;SDS011;12556;55.748;13.194;2023-06-10T04:49:58;3.33;;;0.90;;
11771;SDS011;12556;55.748;13.194;2023-06-10T04:52:25;1.57;;;1.10;;
11771;SDS011;12556;55.748;13.194;2023-06-10T04:54:52;3.30;;;0.93;;
11771;SDS011;12556;55.748;13.194;2023-06-10T04:57:19;3.57;;;1.10;;
11771;SDS011;12556;55.748;13.194;2023-06-10T04:59:46;3.97;;;1.00;;
11771;SDS011;12556;55.748;13.194;2023-06-10T05:02:13;1.70;;;1.10;;
11771;SDS011;12556;55.748;13.194;2023-06-10T05:04:41;1.80;;;1.03;;
11771;SDS011;12556;55.748;13.194;2023-06-10T05:07:08;4.17;;;1.10;;
11771;SDS011;12556;55.748;13.194;2023-06-10T05:09:35;4.40;;;1.23;;
11771;SDS011;12556;55.748;13.194;2023-06-10T05:12:02;2.10;;;1.07;;
11771;SDS011;12556;55.748;13.194;2023-06-10T05:14:30;2.40;;;1.20;;
11771;SDS011;12556;55.748;13.194;2023-06-10T05:16:57;2.50;;;0.90;;
11771;SDS011;12556;55.748;13.194;2023-06-10T05:19:24;2.70;;;1.30;;
11771;SDS011;12556;55.748;13.194;2023-06-10T05:21:53;2.87;;;1.20;;
11771;SDS011;12556;55.748;13.194;2023-06-10T05:24:20;1.67;;;1.07;;
11771;SDS011;12556;55.748;13.194;2023-06-10T05:26:48;1.03;;;0.93;;
11771;SDS011;12556;55.748;13.194;2023-06-10T05:29:15;2.37;;;1.10;;
11771;SDS011;12556;55.748;13.194;2023-06-10T05:31:42;1.80;;;1.10;;
11771;SDS011;12556;55.748;13.194;2023-06-10T05:34:09;3.27;;;1.10;;
11771;SDS011;12556;55.748;13.194;2023-06-10T05:36:35;1.77;;;0.97;;
11771;SDS011;12556;55.748;13.194;2023-06-10T05:39:04;3.97;;;1.17;;
11771;SDS011;12556;55.748;13.194;2023-06-10T05:41:31;3.73;;;1.00;;
11771;SDS011;12556;55.748;13.194;2023-06-10T05:43:58;2.07;;;0.87;;
11771;SDS011;12556;55.748;13.194;2023-06-10T05:46:25;2.50;;;1.13;;
11771;SDS011;12556;55.748;13.194;2023-06-10T05:48:52;1.50;;;1.00;;
11771;SDS011;12556;55.748;13.194;2023-06-10T05:51:18;1.20;;;1.03;;
11771;SDS011;12556;55.748;13.194;2023-06-10T05:53:45;3.53;;;1.10;;
11771;SDS011;12556;55.748;13.194;2023-06-10T05:56:14;1.60;;;1.13;;
11771;SDS011;12556;55.748;13.194;2023-06-10T05:58:40;1.57;;;0.90;;
11771;SDS011;12556;55.748;13.194;2023-06-10T06:01:07;3.13;;;1.00;;
11771;SDS011;12556;55.748;13.194;2023-06-10T06:03:34;2.03;;;0.90;;
11771;SDS011;12556;55.748;13.194;2023-06-10T06:06:02;2.80;;;1.13;;
11771;SDS011;12556;55.748;13.194;2023-06-10T06:08:29;2.73;;;1.13;;
11771;SDS011;12556;55.748;13.194;2023-06-10T06:10:56;1.50;;;1.00;;
11771;SDS011;12556;55.748;13.194;2023-06-10T06:13:25;4.60;;;1.03;;
11771;SDS011;12556;55.748;13.194;2023-06-10T06:15:52;2.73;;;0.83;;
11771;SDS011;12556;55.748;13.194;2023-06-10T06:18:18;1.47;;;0.90;;
11771;SDS011;12556;55.748;13.194;2023-06-10T06:20:45;1.47;;;1.00;;
11771;SDS011;12556;55.748;13.194;2023-06-10T06:23:12;2.40;;;1.10;;
11771;SDS011;12556;55.748;13.194;2023-06-10T06:25:40;1.70;;;1.00;;
11771;SDS011;12556;55.748;13.194;2023-06-10T06:28:07;2.07;;;1.30;;
11771;SDS011;12556;55.748;13.194;2023-06-10T06:30:37;2.57;;;1.23;;
11771;SDS011;12556;55.748;13.194;2023-06-10T06:33:04;2.97;;;1.10;;
11771;SDS011;12556;55.748;13.194;2023-06-10T06:35:31;2.03;;;1.20;;
11771;SDS011;12556;55.748;13.194;2023-06-10T06:37:59;1.27;;;1.10;;
11771;SDS011;12556;55.748;13.194;2023-06-10T06:40:25;2.90;;;1.20;;
11771;SDS011;12556;55.748;13.194;2023-06-10T06:42:52;2.20;;;1.17;;
11771;SDS011;12556;55.748;13.194;2023-06-10T06:45:19;2.20;;;1.20;;
11771;SDS011;12556;55.748;13.194;2023-06-10T06:47:48;1.53;;;1.20;;
11771;SDS011;12556;55.748;13.194;2023-06-10T06:50:15;2.17;;;1.07;;
11771;SDS011;12556;55.748;13.194;2023-06-10T06:52:42;2.53;;;1.20;;
11771;SDS011;12556;55.748;13.194;2023-06-10T06:55:09;17.67;;;1.50;;
11771;SDS011;12556;55.748;13.194;2023-06-10T06:57:36;3.27;;;1.30;;
11771;SDS011;12556;55.748;13.194;2023-06-10T07:00:03;2.60;;;1.10;;
11771;SDS011;12556;55.748;13.194;2023-06-10T07:02:31;2.87;;;1.10;;
11771;SDS011;12556;55.748;13.194;2023-06-10T07:04:59;2.63;;;1.30;;
11771;SDS011;12556;55.748;13.194;2023-06-10T07:07:26;1.60;;;1.20;;
11771;SDS011;12556;55.748;13.194;2023-06-10T07:09:53;7.17;;;1.53;;
11771;SDS011;12556;55.748;13.194;2023-06-10T07:12:20;2.70;;;1.20;;
11771;SDS011;12556;55.748;13.194;2023-06-10T07:14:49;1.80;;;1.30;;
11771;SDS011;12556;55.748;13.194;2023-06-10T07:17:16;1.65;;;1.55;;
11771;SDS011;12556;55.748;13.194;2023-06-10T07:19:43;3.67;;;1.75;;
11771;SDS011;12556;55.748;13.194;2023-06-10T07:22:11;4.25;;;1.63;;
11771;SDS011;12556;55.748;13.194;2023-06-10T07:24:38;2.30;;;1.63;;
11771;SDS011;12556;55.748;13.194;2023-06-10T07:27:05;2.17;;;1.98;;
11771;SDS011;12556;55.748;13.194;2023-06-10T07:29:32;1.65;;;1.20;;
11771;SDS011;12556;55.748;13.194;2023-06-10T07:32:00;1.92;;;1.50;;
11771;SDS011;12556;55.748;13.194;2023-06-10T07:34:28;5.13;;;1.85;;
11771;SDS011;12556;55.748;13.194;2023-06-10T07:36:55;5.32;;;2.63;;
11771;SDS011;12556;55.748;13.194;2023-06-10T07:39:23;7.18;;;1.38;;
11771;SDS011;12556;55.748;13.194;2023-06-10T07:41:50;4.05;;;2.03;;
11771;SDS011;12556;55.748;13.194;2023-06-10T07:44:18;2.63;;;1.40;;
11771;SDS011;12556;55.748;13.194;2023-06-10T07:46:45;3.00;;;1.88;;
11771;SDS011;12556;55.748;13.194;2023-06-10T07:49:12;2.88;;;1.45;;
11771;SDS011;12556;55.748;13.194;2023-06-10T07:51:39;4.13;;;1.55;;
11771;SDS011;12556;55.748;13.194;2023-06-10T07:54:06;2.15;;;2.03;;
11771;SDS011;12556;55.748;13.194;2023-06-10T07:56:34;2.83;;;2.65;;
11771;SDS011;12556;55.748;13.194;2023-06-10T07:59:01;3.25;;;2.10;;
11771;SDS011;12556;55.748;13.194;2023-06-10T08:01:28;5.20;;;4.90;;
11771;SDS011;12556;55.748;13.194;2023-06-10T08:03:56;4.28;;;4.07;;
11771;SDS011;12556;55.748;13.194;2023-06-10T08:06:23;4.45;;;4.10;;
11771;SDS011;12556;55.748;13.194;2023-06-10T08:08:50;5.38;;;5.13;;
11771;SDS011;12556;55.748;13.194;2023-06-10T08:11:17;10.27;;;9.70;;
11771;SDS011;12556;55.748;13.194;2023-06-10T08:13:45;11.32;;;10.43;;
11771;SDS011;12556;55.748;13.194;2023-06-10T08:16:12;8.40;;;7.72;;
11771;SDS011;12556;55.748;13.194;2023-06-10T08:18:39;13.05;;;12.43;;
11771;SDS011;12556;55.748;13.194;2023-06-10T08:21:06;9.90;;;9.25;;
11771;SDS011;12556;55.748;13.194;2023-06-10T08:23:33;11.05;;;10.32;;
11771;SDS011;12556;55.748;13.194;2023-06-10T08:26:00;12.82;;;11.98;;
11771;SDS011;12556;55.748;13.194;2023-06-10T08:28:27;15.75;;;14.98;;
11771;SDS011;12556;55.748;13.194;2023-06-10T08:30:55;20.45;;;19.58;;
11771;SDS011;12556;55.748;13.194;2023-06-10T08:33:22;20.35;;;19.50;;
11771;SDS011;12556;55.748;13.194;2023-06-10T08:35:49;23.75;;;22.65;;
11771;SDS011;12556;55.748;13.194;2023-06-10T08:38:16;23.38;;;22.25;;
11771;SDS011;12556;55.748;13.194;2023-06-10T08:40:43;13.43;;;12.65;;
11771;SDS011;12556;55.748;13.194;2023-06-10T08:43:10;28.17;;;26.83;;
11771;SDS011;12556;55.748;13.194;2023-06-10T08:45:47;30.73;;;28.92;;
11771;SDS011;12556;55.748;13.194;2023-06-10T08:48:16;35.78;;;33.65;;
11771;SDS011;12556;55.748;13.194;2023-06-10T08:50:45;34.10;;;32.65;;
11771;SDS011;12556;55.748;13.194;2023-06-10T08:53:14;41.80;;;40.17;;
11771;SDS011;12556;55.748;13.194;2023-06-10T08:55:46;27.58;;;25.88;;
11771;SDS011;12556;55.748;13.194;2023-06-10T08:58:17;30.27;;;29.08;;
11771;SDS011;12556;55.748;13.194;2023-06-10T09:00:44;43.88;;;41.75;;
11771;SDS011;12556;55.748;13.194;2023-06-10T09:03:12;37.47;;;36.03;;
11771;SDS011;12556;55.748;13.194;2023-06-10T09:05:40;38.92;;;37.03;;
11771;SDS011;12556;55.748;13.194;2023-06-10T09:08:08;42.08;;;40.10;;
11771;SDS011;12556;55.748;13.194;2023-06-10T09:10:36;34.20;;;32.83;;
11771;SDS011;12556;55.748;13.194;2023-06-10T09:13:03;46.75;;;44.92;;
11771;SDS011;12556;55.748;13.194;2023-06-10T09:15:30;53.03;;;50.95;;
11771;SDS011;12556;55.748;13.194;2023-06-10T09:17:57;46.22;;;44.20;;
11771;SDS011;12556;55.748;13.194;2023-06-10T09:20:24;46.38;;;43.88;;
11771;SDS011;12556;55.748;13.194;2023-06-10T09:22:53;48.58;;;46.58;;
11771;SDS011;12556;55.748;13.194;2023-06-10T09:25:20;51.97;;;49.78;;
11771;SDS011;12556;55.748;13.194;2023-06-10T09:28:01;56.70;;;54.42;;
11771;SDS011;12556;55.748;13.194;2023-06-10T09:30:28;53.83;;;51.72;;
11771;SDS011;12556;55.748;13.194;2023-06-10T09:32:56;56.55;;;54.03;;
11771;SDS011;12556;55.748;13.194;2023-06-10T09:35:24;61.80;;;59.10;;
11771;SDS011;12556;55.748;13.194;2023-06-10T09:37:53;73.45;;;70.65;;
11771;SDS011;12556;55.748;13.194;2023-06-10T09:40:21;44.78;;;42.75;;
11771;SDS011;12556;55.748;13.194;2023-06-10T09:42:52;59.72;;;56.88;;
11771;SDS011;12556;55.748;13.194;2023-06-10T09:45:20;82.75;;;79.70;;
11771;SDS011;12556;55.748;13.194;2023-06-10T09:47:50;68.57;;;65.75;;
11771;SDS011;12556;55.748;13.194;2023-06-10T09:50:18;78.85;;;75.80;;
11771;SDS011;12556;55.748;13.194;2023-06-10T09:52:45;73.55;;;70.82;;
11771;SDS011;12556;55.748;13.194;2023-06-10T09:55:14;80.75;;;77.70;;
11771;SDS011;12556;55.748;13.194;2023-06-10T09:57:41;98.18;;;94.53;;
11771;SDS011;12556;55.748;13.194;2023-06-10T10:00:11;97.93;;;94.15;;
11771;SDS011;12556;55.748;13.194;2023-06-10T10:02:45;108.72;;;104.47;;
11771;SDS011;12556;55.748;13.194;2023-06-10T10:05:13;90.35;;;86.43;;
11771;SDS011;12556;55.748;13.194;2023-06-10T10:07:40;117.25;;;112.75;;
11771;SDS011;12556;55.748;13.194;2023-06-10T10:10:08;98.75;;;94.90;;
11771;SDS011;12556;55.748;13.194;2023-06-10T10:12:37;73.45;;;70.65;;
11771;SDS011;12556;55.748;13.194;2023-06-10T10:15:05;107.47;;;103.43;;
11771;SDS011;12556;55.748;13.194;2023-06-10T10:17:34;146.32;;;140.73;;
11771;SDS011;12556;55.748;13.194;2023-06-10T10:20:02;81.70;;;78.13;;
11771;SDS011;12556;55.748;13.194;2023-06-10T10:22:31;146.52;;;140.75;;
11771;SDS011;12556;55.748;13.194;2023-06-10T10:25:05;114.85;;;110.32;;
11771;SDS011;12556;55.748;13.194;2023-06-10T10:27:36;113.72;;;109.05;;
11771;SDS011;12556;55.748;13.194;2023-06-10T10:30:10;129.45;;;124.50;;
11771;SDS011;12556;55.748;13.194;2023-06-10T10:32:38;130.02;;;125.03;;
11771;SDS011;12556;55.748;13.194;2023-06-10T10:35:12;130.70;;;125.82;;
11771;SDS011;12556;55.748;13.194;2023-06-10T10:37:42;119.15;;;114.80;;
11771;SDS011;12556;55.748;13.194;2023-06-10T10:40:10;161.80;;;155.90;;
11771;SDS011;12556;55.748;13.194;2023-06-10T10:42:38;146.82;;;141.52;;
11771;SDS011;12556;55.748;13.194;2023-06-10T10:45:08;144.27;;;138.85;;
11771;SDS011;12556;55.748;13.194;2023-06-10T10:47:36;165.40;;;159.30;;
11771;SDS011;12556;55.748;13.194;2023-06-10T10:50:12;208.63;;;201.13;;
11771;SDS011;12556;55.748;13.194;2023-06-10T10:52:46;189.63;;;182.73;;
11771;SDS011;12556;55.748;13.194;2023-06-10T10:55:17;200.32;;;192.88;;
11771;SDS011;12556;55.748;13.194;2023-06-10T10:57:53;201.10;;;192.93;;
11771;SDS011;12556;55.748;13.194;2023-06-10T11:00:25;176.00;;;169.55;;
11771;SDS011;12556;55.748;13.194;2023-06-10T11:02:57;258.80;;;249.38;;
11771;SDS011;12556;55.748;13.194;2023-06-10T11:05:31;236.85;;;227.90;;
11771;SDS011;12556;55.748;13.194;2023-06-10T11:08:05;227.30;;;218.73;;
11771;SDS011;12556;55.748;13.194;2023-06-10T11:10:33;234.07;;;225.50;;
11771;SDS011;12556;55.748;13.194;2023-06-10T11:13:02;238.35;;;229.05;;
11771;SDS011;12556;55.748;13.194;2023-06-10T11:15:37;252.45;;;242.93;;
11771;SDS011;12556;55.748;13.194;2023-06-10T11:18:09;258.55;;;248.73;;
11771;SDS011;12556;55.748;13.194;2023-06-10T11:29:04;220.30;;;211.93;;
11771;SDS011;12556;55.748;13.194;2023-06-10T11:31:40;216.40;;;208.40;;
11771;SDS011;12556;55.748;13.194;2023-06-10T11:34:08;244.93;;;235.65;;
11771;SDS011;12556;55.748;13.194;2023-06-10T11:36:37;298.15;;;286.92;;
11771;SDS011;12556;55.748;13.194;2023-06-10T11:39:07;296.52;;;284.90;;
11771;SDS011;12556;55.748;13.194;2023-06-10T11:41:35;265.48;;;255.73;;
11771;SDS011;12556;55.748;13.194;2023-06-10T11:44:05;308.63;;;297.23;;
11771;SDS011;12556;55.748;13.194;2023-06-10T11:46:34;262.75;;;252.27;;
11771;SDS011;12556;55.748;13.194;2023-06-10T11:49:03;274.75;;;263.38;;
11771;SDS011;12556;55.748;13.194;2023-06-10T11:51:32;244.30;;;234.38;;
11771;SDS011;12556;55.748;13.194;2023-06-10T11:54:00;277.50;;;266.90;;
11771;SDS011;12556;55.748;13.194;2023-06-10T11:56:28;233.35;;;224.45;;
11771;SDS011;12556;55.748;13.194;2023-06-10T11:58:56;259.33;;;249.63;;
11771;SDS011;12556;55.748;13.194;2023-06-10T12:01:29;231.45;;;222.35;;
11771;SDS011;12556;55.748;13.194;2023-06-10T12:03:57;274.10;;;263.70;;
11771;SDS011;12556;55.748;13.194;2023-06-10T12:06:38;307.60;;;295.98;;
11771;SDS011;12556;55.748;13.194;2023-06-10T12:09:06;272.60;;;262.08;;
11771;SDS011;12556;55.748;13.194;2023-06-10T12:11:38;267.67;;;256.83;;
11771;SDS011;12556;55.748;13.194;2023-06-10T12:14:06;283.17;;;272.60;;
11771;SDS011;12556;55.748;13.194;2023-06-10T12:16:33;231.98;;;223.25;;
11771;SDS011;12556;55.748;13.194;2023-06-10T12:19:03;196.93;;;189.25;;
11771;SDS011;12556;55.748;13.194;2023-06-10T12:21:31;210.73;;;202.85;;
11771;SDS011;12556;55.748;13.194;2023-06-10T12:24:05;238.25;;;229.40;;
11771;SDS011;12556;55.748;13.194;2023-06-10T12:26:36;189.70;;;182.50;;
11771;SDS011;12556;55.748;13.194;2023-06-10T12:29:15;222.63;;;214.48;;
11771;SDS011;12556;55.748;13.194;2023-06-10T12:31:59;170.60;;;164.00;;
11771;SDS011;12556;55.748;13.194;2023-06-10T12:34:31;185.70;;;178.65;;
11771;SDS011;12556;55.748;13.194;2023-06-10T12:36:59;197.93;;;190.52;;
11771;SDS011;12556;55.748;13.194;2023-06-10T12:39:27;178.88;;;171.95;;
11771;SDS011;12556;55.748;13.194;2023-06-10T12:41:54;178.10;;;171.48;;
11771;SDS011;12556;55.748;13.194;2023-06-10T12:44:31;192.75;;;185.45;;
11771;SDS011;12556;55.748;13.194;2023-06-10T12:46:59;204.95;;;197.38;;
11771;SDS011;12556;55.748;13.194;2023-06-10T12:49:26;219.05;;;210.95;;
11771;SDS011;12556;55.748;13.194;2023-06-10T12:51:53;194.27;;;187.02;;
11771;SDS011;12556;55.748;13.194;2023-06-10T12:54:20;189.23;;;182.02;;
11771;SDS011;12556;55.748;13.194;2023-06-10T12:56:49;195.00;;;187.90;;
11771;SDS011;12556;55.748;13.194;2023-06-10T12:59:16;174.38;;;167.43;;
11771;SDS011;12556;55.748;13.194;2023-06-10T13:01:43;231.02;;;222.68;;
11771;SDS011;12556;55.748;13.194;2023-06-10T13:04:10;225.07;;;216.55;;
11771;SDS011;12556;55.748;13.194;2023-06-10T13:06:37;200.23;;;192.65;;
11771;SDS011;12556;55.748;13.194;2023-06-10T13:09:05;208.32;;;200.63;;
11771;SDS011;12556;55.748;13.194;2023-06-10T13:11:33;199.25;;;191.95;;
11771;SDS011;12556;55.748;13.194;2023-06-10T13:14:02;135.07;;;130.20;;
11771;SDS011;12556;55.748;13.194;2023-06-10T13:16:31;184.07;;;177.15;;
11771;SDS011;12556;55.748;13.194;2023-06-10T13:18:58;154.55;;;148.40;;
11771;SDS011;12556;55.748;13.194;2023-06-10T13:21:28;175.32;;;168.93;;
11771;SDS011;12556;55.748;13.194;2023-06-10T13:23:54;150.27;;;144.80;;
11771;SDS011;12556;55.748;13.194;2023-06-10T13:26:21;110.30;;;104.60;;
11771;SDS011;12556;55.748;13.194;2023-06-10T13:28:48;129.70;;;124.88;;
11771;SDS011;12556;55.748;13.194;2023-06-10T13:31:16;176.35;;;169.90;;
11771;SDS011;12556;55.748;13.194;2023-06-10T13:33:45;176.95;;;170.48;;
11771;SDS011;12556;55.748;13.194;2023-06-10T13:36:12;165.95;;;159.77;;
11771;SDS011;12556;55.748;13.194;2023-06-10T13:38:39;92.28;;;88.82;;
11771;SDS011;12556;55.748;13.194;2023-06-10T13:41:06;155.23;;;149.52;;
11771;SDS011;12556;55.748;13.194;2023-06-10T13:43:33;177.18;;;170.70;;
11771;SDS011;12556;55.748;13.194;2023-06-10T13:46:00;107.35;;;102.57;;
11771;SDS011;12556;55.748;13.194;2023-06-10T13:48:28;173.15;;;166.70;;
11771;SDS011;12556;55.748;13.194;2023-06-10T13:50:56;156.38;;;150.68;;
11771;SDS011;12556;55.748;13.194;2023-06-10T13:53:24;148.25;;;142.50;;
11771;SDS011;12556;55.748;13.194;2023-06-10T13:55:51;133.52;;;128.70;;
11771;SDS011;12556;55.748;13.194;2023-06-10T13:58:18;141.35;;;136.27;;
11771;SDS011;12556;55.748;13.194;2023-06-10T14:00:45;144.55;;;139.10;;
11771;SDS011;12556;55.748;13.194;2023-06-10T14:03:12;135.55;;;130.55;;
11771;SDS011;12556;55.748;13.194;2023-06-10T14:05:41;156.35;;;150.45;;
11771;SDS011;12556;55.748;13.194;2023-06-10T14:08:08;129.02;;;124.05;;
11771;SDS011;12556;55.748;13.194;2023-06-10T14:10:35;120.50;;;115.82;;
11771;SDS011;12556;55.748;13.194;2023-06-10T14:13:02;154.65;;;148.90;;
11771;SDS011;12556;55.748;13.194;2023-06-10T14:15:28;107.28;;;102.95;;
11771;SDS011;12556;55.748;13.194;2023-06-10T14:17:55;123.60;;;119.13;;
11771;SDS011;12556;55.748;13.194;2023-06-10T14:20:22;133.52;;;128.45;;
11771;SDS011;12556;55.748;13.194;2023-06-10T14:22:52;126.90;;;121.60;;
11771;SDS011;12556;55.748;13.194;2023-06-10T14:25:18;112.28;;;108.05;;
11771;SDS011;12556;55.748;13.194;2023-06-10T14:27:45;93.72;;;89.90;;
11771;SDS011;12556;55.748;13.194;2023-06-10T14:30:12;101.45;;;97.82;;